Terminal Aerodrome Forecast
Issued by NWS Grand Forks, ND

Home | Current Version | Previous Version | Text Only | Print | Product List | Glossary On
Versions: 1 2 3 4 5 6 7 8 9 10 11 12 13 14 15
000
FTUS43 KFGF 060520
TAFFAR
TAF
KFAR 060520Z 0606/0706 35008KT P6SM SCT040
      TEMPO 0608/0612 5SM HZ BKN040
     FM061500 35016KT 5SM HZ SCT250=

USA.gov is the U.S. government's official web portal to all federal, state and local government web resources and services.